createdAt,value
2022-10-17T00:04:01.746Z,40.50
2022-10-17T00:07:03.590Z,40.00
2022-10-17T00:10:06.897Z,40.20
2022-10-17T00:13:09.472Z,38.70
2022-10-17T00:16:11.253Z,33.50
2022-10-17T00:19:12.860Z,33.90
2022-10-17T00:25:16.302Z,41.50
2022-10-17T00:28:17.854Z,42.50
2022-10-17T00:34:22.034Z,45.10
2022-10-17T00:37:23.806Z,44.50
2022-10-17T00:40:25.613Z,39.90
2022-10-17T00:43:27.665Z,38.90
2022-10-17T00:46:31.965Z,40.90
2022-10-17T00:49:36.173Z,39.30
2022-10-17T00:52:37.888Z,38.60
2022-10-17T00:55:46.371Z,47.50
2022-10-17T00:58:48.501Z,43.90
2022-10-17T01:02:13.637Z,48.40
2022-10-17T01:05:16.266Z,46.60
2022-10-17T01:08:17.960Z,48.20
2022-10-17T01:11:40.235Z,51.10
2022-10-17T01:15:06.815Z,45.10
2022-10-17T01:18:08.588Z,45.60
2022-10-17T01:21:32.136Z,44.30
2022-10-17T01:24:56.395Z,42.40
2022-10-17T01:28:19.526Z,48.90
2022-10-17T01:31:43.853Z,44.60
2022-10-17T01:34:55.106Z,39.80
2022-10-17T01:38:14.722Z,53.00
2022-10-17T01:41:35.878Z,38.40
2022-10-17T01:44:58.870Z,39.60
2022-10-17T01:48:05.671Z,35.20
2022-10-17T01:51:18.763Z,35.30
2022-10-17T01:54:27.517Z,42.40
2022-10-17T01:57:33.109Z,35.80
2022-10-17T02:00:35.799Z,41.00
2022-10-17T02:03:39.942Z,37.60
2022-10-17T02:06:41.586Z,38.00
2022-10-17T02:09:43.460Z,36.60
2022-10-17T02:13:04.053Z,39.20
2022-10-17T02:16:15.110Z,37.40
2022-10-17T02:19:41.431Z,35.90
2022-10-17T02:22:49.978Z,32.10
2022-10-17T02:26:00.263Z,33.30
2022-10-17T02:29:21.974Z,30.90
2022-10-17T02:32:40.754Z,30.10
2022-10-17T02:35:47.230Z,31.10
2022-10-17T02:38:50.505Z,30.90
2022-10-17T02:41:52.971Z,32.70
2022-10-17T02:44:55.557Z,31.40
2022-10-17T02:48:12.416Z,30.40
2022-10-17T02:51:28.051Z,30.10
2022-10-17T02:54:38.149Z,31.50
2022-10-17T02:57:45.950Z,28.20
2022-10-17T03:00:47.793Z,31.30
2022-10-17T03:03:50.619Z,31.40
2022-10-17T03:06:52.378Z,34.80
2022-10-17T03:09:54.153Z,30.80
2022-10-17T03:15:58.505Z,27.40
2022-10-17T03:19:00.108Z,26.70
2022-10-17T03:25:03.826Z,26.80
2022-10-17T03:28:05.964Z,27.70
2022-10-17T03:31:09.542Z,26.50
2022-10-17T03:34:11.510Z,27.60
2022-10-17T03:41:55.660Z,25.50
2022-10-17T03:44:57.472Z,33.20
2022-10-17T05:05:01.984Z,26.90
2022-10-17T05:08:09.849Z,27.60
2022-10-17T05:11:23.171Z,30.70
2022-10-17T05:14:24.964Z,29.90
2022-10-17T05:17:26.771Z,32.10
2022-10-17T05:20:28.589Z,28.60
2022-10-17T05:23:30.946Z,30.20
2022-10-17T05:26:32.655Z,34.90
2022-10-17T05:29:34.811Z,37.90
2022-10-17T05:32:36.777Z,36.90
2022-10-17T05:35:38.384Z,33.10
2022-10-17T05:41:41.692Z,29.80
2022-10-17T05:44:43.394Z,30.10
2022-10-17T05:47:46.166Z,26.30
2022-10-17T05:50:47.926Z,32.40
2022-10-17T05:53:49.617Z,32.00
2022-10-17T05:56:55.788Z,29.40
2022-10-17T05:59:57.507Z,26.70
2022-10-17T06:02:59.202Z,24.50
2022-10-17T06:06:09.485Z,26.80
2022-10-17T06:09:11.852Z,26.60
2022-10-17T06:12:13.637Z,25.20
2022-10-17T06:15:15.450Z,31.00
2022-10-17T06:18:17.188Z,26.80
2022-10-17T06:21:27.108Z,26.40
2022-10-17T06:24:28.892Z,23.30
2022-10-17T06:27:30.711Z,24.40
2022-10-17T06:30:32.448Z,25.90
2022-10-17T06:33:34.446Z,25.40
2022-10-17T06:36:36.146Z,23.70
2022-10-17T06:39:37.912Z,26.00
2022-10-17T06:42:39.750Z,24.30
2022-10-17T06:45:42.000Z,23.30
2022-10-17T06:48:43.856Z,26.20
2022-10-17T06:51:45.944Z,24.50
2022-10-17T06:54:47.596Z,31.30
2022-10-17T06:57:49.375Z,30.90
2022-10-17T07:00:51.196Z,27.00
2022-10-17T07:03:53.120Z,25.60
2022-10-17T07:06:54.825Z,23.40
2022-10-17T07:09:56.705Z,24.60
2022-10-17T07:12:58.291Z,24.00
2022-10-17T07:16:01.871Z,24.40
2022-10-17T07:19:03.787Z,32.20
2022-10-17T07:22:06.361Z,25.30
2022-10-17T07:25:09.151Z,23.40
2022-10-17T07:28:10.910Z,25.70
2022-10-17T07:31:15.856Z,25.80
2022-10-17T07:34:18.484Z,38.30
2022-10-17T07:37:20.048Z,28.70
2022-10-17T07:40:22.382Z,26.40
2022-10-17T07:43:25.434Z,24.30
2022-10-17T07:46:27.204Z,25.80
2022-10-17T07:49:29.432Z,22.90
2022-10-17T07:52:32.061Z,24.40
2022-10-17T07:55:33.977Z,28.00
2022-10-17T07:58:36.780Z,24.40
2022-10-17T08:01:38.536Z,26.20
2022-10-17T08:04:40.297Z,24.90
2022-10-17T08:07:41.988Z,27.00
2022-10-17T08:10:43.714Z,27.40
2022-10-17T08:13:45.361Z,26.40
2022-10-17T08:16:47.103Z,26.30
2022-10-17T08:19:48.718Z,24.70
2022-10-17T08:22:54.539Z,22.70
2022-10-17T08:25:59.842Z,23.70
2022-10-17T08:29:01.780Z,21.60
2022-10-17T08:32:05.418Z,21.90
2022-10-17T08:35:08.746Z,23.30
2022-10-17T08:38:12.306Z,21.60
2022-10-17T08:41:53.464Z,20.80
2022-10-17T08:48:19.512Z,19.40
2022-10-17T08:51:24.816Z,20.90
2022-10-17T08:54:40.510Z,21.80
2022-10-17T08:57:43.009Z,21.90
2022-10-17T09:00:59.134Z,22.20
2022-10-17T09:04:03.991Z,19.70
2022-10-17T09:07:23.024Z,20.00
2022-10-17T09:10:53.949Z,20.10
2022-10-17T09:14:15.580Z,20.40
2022-10-17T09:17:39.010Z,23.60
2022-10-17T09:20:45.116Z,19.70
2022-10-17T09:23:59.555Z,21.60
2022-10-17T09:27:40.985Z,21.50
2022-10-17T09:30:57.260Z,20.60
2022-10-17T09:34:01.714Z,20.50
2022-10-17T09:37:03.718Z,19.60
2022-10-17T09:40:07.956Z,19.40
2022-10-17T09:43:12.013Z,20.90
2022-10-17T09:46:25.850Z,20.00
2022-10-17T09:49:37.152Z,20.30
2022-10-17T09:52:48.653Z,22.70
2022-10-17T09:55:56.279Z,21.50
2022-10-17T09:58:59.155Z,20.80
2022-10-17T10:02:13.070Z,21.30
2022-10-17T10:05:18.034Z,20.60
2022-10-17T10:08:21.491Z,22.60
2022-10-17T10:11:26.679Z,18.20
2022-10-17T10:14:33.673Z,20.70
2022-10-17T10:17:41.996Z,19.80
2022-10-17T10:20:46.964Z,18.70
2022-10-17T10:24:12.621Z,20.50
2022-10-17T10:27:17.102Z,20.00
2022-10-17T10:30:28.348Z,21.40
2022-10-17T10:33:30.908Z,17.30
2022-10-17T10:37:25.327Z,18.90
2022-10-17T10:40:33.381Z,17.50
2022-10-17T10:43:40.530Z,20.80
2022-10-17T10:46:42.290Z,19.40
2022-10-17T10:49:45.421Z,19.40
2022-10-17T10:52:56.690Z,18.90
2022-10-17T10:56:11.675Z,21.20
2022-10-17T10:59:28.529Z,18.60
2022-10-17T11:03:13.012Z,20.60
2022-10-17T11:06:20.614Z,19.60
2022-10-17T11:09:33.016Z,19.20
2022-10-17T11:12:46.901Z,19.60
2022-10-17T11:15:58.278Z,18.80
2022-10-17T11:19:05.003Z,19.70
2022-10-17T11:22:24.021Z,22.10
2022-10-17T11:25:37.450Z,18.30
2022-10-17T11:28:39.181Z,19.60
2022-10-17T11:31:46.351Z,19.70
2022-10-17T11:34:51.696Z,19.80
2022-10-17T11:38:17.200Z,21.30
2022-10-17T11:41:38.793Z,18.70
2022-10-17T11:44:41.708Z,18.10
2022-10-17T11:47:49.890Z,19.90
2022-10-17T11:54:35.539Z,23.60
2022-10-17T11:57:46.678Z,22.20
2022-10-17T12:00:55.410Z,19.40
2022-10-17T12:04:31.529Z,23.30
2022-10-17T12:07:56.865Z,21.90
2022-10-17T12:11:04.469Z,22.70
2022-10-17T12:14:45.800Z,22.40
2022-10-17T12:18:01.062Z,20.70
2022-10-17T12:21:03.231Z,20.30
2022-10-17T12:24:05.358Z,22.30
2022-10-17T12:27:30.973Z,21.30
2022-10-17T12:31:01.332Z,20.50
2022-10-17T12:34:04.613Z,22.00
2022-10-17T12:37:11.443Z,21.70
2022-10-17T12:40:47.754Z,23.10
2022-10-17T12:43:53.205Z,19.60
2022-10-17T12:47:10.705Z,20.50
2022-10-17T12:51:34.261Z,24.50
2022-10-17T12:54:37.894Z,21.70
2022-10-17T12:57:51.882Z,22.80
2022-10-17T13:01:24.969Z,22.00
2022-10-17T13:04:18.199Z,20.80
2022-10-17T13:07:22.335Z,22.60
2022-10-17T13:10:28.303Z,21.80
2022-10-17T13:13:48.940Z,21.60
2022-10-17T13:17:27.661Z,21.60
2022-10-17T13:20:31.858Z,21.40
2022-10-17T13:23:36.973Z,21.00
2022-10-17T13:26:45.628Z,19.80
2022-10-17T13:29:47.389Z,19.30
2022-10-17T13:32:49.337Z,18.90
2022-10-17T13:36:06.419Z,19.20
2022-10-17T13:39:13.109Z,19.10
2022-10-17T13:42:23.380Z,19.40
2022-10-17T13:45:37.469Z,19.80
2022-10-17T13:48:39.419Z,20.10
2022-10-17T13:51:50.320Z,21.30
2022-10-17T13:54:53.786Z,20.90
2022-10-17T13:57:55.411Z,21.90
2022-10-17T14:00:57.460Z,20.50
2022-10-17T14:04:20.195Z,20.80
2022-10-17T14:07:26.826Z,20.40
2022-10-17T14:10:34.162Z,19.10
2022-10-17T14:13:36.211Z,19.30
2022-10-17T14:16:40.372Z,20.60
2022-10-17T14:19:42.179Z,19.80
2022-10-17T14:22:47.276Z,21.40
2022-10-17T14:26:11.819Z,22.90
2022-10-17T14:29:24.356Z,21.00
2022-10-17T14:32:27.590Z,20.90
2022-10-17T14:35:41.522Z,20.30
2022-10-17T14:38:49.220Z,22.80
2022-10-17T14:41:52.186Z,18.90
2022-10-17T14:44:54.835Z,20.10
2022-10-17T14:48:04.649Z,20.50
2022-10-17T14:51:15.402Z,20.00
2022-10-17T14:54:26.254Z,20.00
2022-10-17T14:57:49.825Z,20.80
2022-10-17T15:00:51.791Z,20.30
2022-10-17T15:03:53.709Z,21.70
2022-10-17T15:06:55.541Z,20.20
2022-10-17T15:09:57.222Z,19.40
2022-10-17T15:13:27.945Z,20.00
2022-10-17T15:16:30.897Z,21.50
2022-10-17T15:19:32.658Z,19.70
2022-10-17T15:22:36.657Z,23.10
2022-10-17T15:25:39.211Z,31.00
2022-10-17T15:28:41.104Z,27.30
2022-10-17T15:31:43.115Z,32.80
2022-10-17T15:34:45.148Z,31.80
2022-10-17T15:37:47.079Z,37.50
2022-10-17T15:40:51.154Z,40.80
2022-10-17T15:43:53.125Z,36.30
2022-10-17T15:46:56.398Z,37.10
2022-10-17T15:49:58.751Z,40.70
2022-10-17T15:53:00.448Z,36.60
2022-10-17T15:56:02.628Z,35.80
2022-10-17T15:59:06.757Z,33.30
2022-10-17T16:02:14.568Z,44.60
2022-10-17T16:05:26.106Z,39.60
2022-10-17T16:08:28.385Z,46.00
2022-10-17T16:11:41.178Z,41.80
2022-10-17T16:14:43.244Z,41.70
2022-10-17T16:17:45.029Z,40.70
2022-10-17T16:20:47.224Z,31.30
2022-10-17T16:23:48.981Z,35.50
2022-10-17T16:26:51.225Z,33.20
2022-10-17T16:29:52.810Z,39.00
2022-10-17T16:32:55.966Z,42.00
2022-10-17T16:35:58.097Z,43.80
2022-10-17T16:38:59.777Z,42.90
2022-10-17T16:42:04.689Z,50.80
2022-10-17T16:45:06.686Z,42.80
2022-10-17T16:48:09.387Z,49.10
2022-10-17T16:51:12.635Z,45.20
2022-10-17T16:54:14.355Z,46.40
2022-10-17T16:57:16.001Z,44.20
2022-10-17T17:00:18.326Z,42.20
2022-10-17T17:03:20.125Z,43.20
2022-10-17T17:06:25.394Z,44.90
2022-10-17T17:09:27.111Z,58.40
2022-10-17T17:12:28.842Z,63.80
2022-10-17T17:15:30.497Z,63.10
2022-10-17T17:18:32.397Z,57.40
2022-10-17T17:21:35.103Z,56.90
2022-10-17T17:24:37.203Z,63.20
2022-10-17T17:27:38.950Z,55.40
2022-10-17T17:30:40.738Z,58.50
2022-10-17T17:33:43.114Z,69.70
2022-10-17T17:36:44.895Z,65.90
2022-10-17T17:39:46.717Z,64.10
2022-10-17T17:42:48.435Z,65.00
2022-10-17T17:45:50.239Z,59.80
2022-10-17T17:48:53.334Z,57.60
2022-10-17T17:51:55.085Z,54.80
2022-10-17T17:54:56.966Z,74.60
2022-10-17T17:57:58.864Z,78.30
2022-10-17T18:01:01.194Z,73.80
2022-10-17T18:04:03.857Z,68.00
2022-10-17T18:07:05.833Z,56.70
2022-10-17T18:10:08.466Z,54.00
2022-10-17T18:13:10.198Z,53.50
2022-10-17T18:16:16.903Z,57.20
2022-10-17T18:19:19.020Z,56.20
2022-10-17T18:22:20.930Z,55.50
2022-10-17T18:25:22.801Z,57.10
2022-10-17T18:28:24.841Z,70.70
2022-10-17T18:31:32.370Z,76.30
2022-10-17T18:34:34.130Z,80.70
2022-10-17T18:37:35.758Z,88.50
2022-10-17T18:40:38.055Z,77.80
2022-10-17T18:43:41.582Z,82.70
2022-10-17T18:46:43.270Z,76.00
2022-10-17T18:49:45.158Z,91.20
2022-10-17T18:52:48.203Z,91.20
2022-10-17T18:55:51.388Z,84.80
2022-10-17T18:58:53.595Z,87.30
2022-10-17T19:01:55.452Z,85.40
2022-10-17T19:04:57.436Z,96.30
2022-10-17T19:07:59.557Z,66.50
2022-10-17T19:11:13.439Z,61.00
2022-10-17T19:14:15.224Z,54.30
2022-10-17T19:17:17.326Z,49.60
2022-10-17T19:20:18.951Z,56.60
2022-10-17T19:23:20.931Z,71.30
2022-10-17T19:26:23.446Z,62.70
2022-10-17T19:29:28.166Z,63.20
2022-10-17T19:32:31.259Z,54.40
2022-10-17T19:35:34.941Z,51.80
2022-10-17T19:38:36.910Z,56.70
2022-10-17T19:41:43.058Z,84.00
2022-10-17T19:44:44.687Z,73.90
2022-10-17T19:47:46.271Z,49.50
2022-10-17T19:50:49.954Z,49.20
2022-10-17T19:53:52.795Z,47.80
2022-10-17T19:56:54.546Z,43.80
2022-10-17T19:59:56.883Z,59.40
2022-10-17T20:03:02.656Z,58.10
2022-10-17T20:06:04.873Z,53.00
2022-10-17T20:09:08.810Z,52.20
2022-10-17T20:12:12.971Z,44.30
2022-10-17T20:15:14.819Z,36.50
2022-10-17T20:18:16.818Z,30.60
2022-10-17T20:21:21.693Z,32.40
2022-10-17T20:24:23.413Z,33.00
2022-10-17T20:27:27.648Z,35.30
2022-10-17T20:30:29.709Z,32.20
2022-10-17T20:33:32.131Z,32.40
2022-10-17T20:36:37.324Z,35.00
2022-10-17T20:39:39.405Z,39.00
2022-10-17T20:42:41.087Z,34.20
2022-10-17T20:45:51.286Z,37.90
2022-10-17T20:48:54.827Z,38.60
2022-10-17T20:51:56.759Z,38.30
2022-10-17T20:54:58.372Z,35.20
2022-10-17T20:58:00.153Z,37.90
2022-10-17T21:01:08.123Z,32.80
2022-10-17T21:07:31.690Z,30.40
2022-10-17T21:10:35.820Z,29.90
2022-10-17T21:13:38.346Z,32.10
2022-10-17T21:16:41.334Z,29.90
2022-10-17T21:19:43.082Z,35.50
2022-10-17T21:22:44.777Z,32.90
2022-10-17T21:25:46.426Z,34.00
2022-10-17T21:28:48.908Z,34.50
2022-10-17T21:31:51.335Z,35.20
2022-10-17T21:34:53.004Z,30.00
2022-10-17T21:37:54.724Z,31.70
2022-10-17T21:40:56.322Z,29.50
2022-10-17T21:44:00.560Z,28.20
2022-10-17T21:47:02.825Z,28.80
2022-10-17T21:50:04.858Z,31.80
2022-10-17T21:53:06.493Z,34.30
2022-10-17T21:56:11.722Z,31.70
2022-10-17T21:59:13.363Z,34.90
2022-10-17T22:02:16.433Z,31.40
2022-10-17T22:05:18.081Z,28.00
2022-10-17T22:08:19.790Z,29.20
2022-10-17T22:11:28.409Z,34.40
2022-10-17T22:14:30.332Z,29.70
2022-10-17T22:17:32.330Z,28.50
2022-10-17T22:20:34.934Z,29.60
2022-10-17T22:23:38.317Z,31.20
2022-10-17T22:26:41.498Z,30.50
2022-10-17T22:29:46.268Z,31.40
2022-10-17T22:32:47.999Z,33.80
2022-10-17T22:41:53.009Z,26.00
2022-10-17T22:44:54.665Z,29.80
2022-10-17T22:50:59.152Z,27.50
2022-10-17T22:54:01.036Z,28.90
2022-10-17T22:57:02.713Z,28.30
2022-10-17T23:00:06.345Z,29.00
2022-10-17T23:03:08.087Z,29.10
2022-10-17T23:06:29.558Z,29.70
2022-10-17T23:09:46.581Z,29.90
2022-10-17T23:12:48.288Z,31.60
2022-10-17T23:18:53.216Z,33.10
2022-10-17T23:24:56.587Z,32.40
2022-10-17T23:27:58.290Z,33.80
2022-10-17T23:31:09.183Z,35.10
2022-10-17T23:34:10.877Z,34.90
2022-10-17T23:37:12.517Z,34.20
2022-10-17T23:43:15.605Z,39.70
2022-10-17T23:46:17.668Z,45.00
2022-10-17T23:49:19.293Z,36.40
2022-10-17T23:55:22.516Z,39.40
2022-10-17T23:58:24.144Z,35.50
